createdAt,value
2023-02-21T00:01:53.540Z,2.88
2023-02-21T00:04:36.837Z,2.42
2023-02-21T00:07:19.881Z,3.10
2023-02-21T00:10:04.227Z,2.78
2023-02-21T00:12:47.517Z,2.55
2023-02-21T00:15:30.882Z,3.13
2023-02-21T00:18:13.210Z,2.50
2023-02-21T00:20:56.230Z,2.47
2023-02-21T00:23:39.258Z,2.72
2023-02-21T00:26:23.834Z,2.25
2023-02-21T00:29:07.365Z,2.22
2023-02-21T00:31:50.888Z,2.47
2023-02-21T00:34:34.118Z,2.30
2023-02-21T00:37:18.056Z,2.60
2023-02-21T00:40:01.798Z,2.20
2023-02-21T00:42:43.896Z,2.30
2023-02-21T00:45:26.469Z,2.30
2023-02-21T00:48:09.453Z,2.40
2023-02-21T00:50:52.456Z,2.08
2023-02-21T00:53:35.472Z,2.60
2023-02-21T00:56:19.539Z,2.28
2023-02-21T00:59:02.325Z,2.38
2023-02-21T01:01:44.876Z,2.53
2023-02-21T01:04:27.791Z,2.47
2023-02-21T01:07:10.466Z,2.28
2023-02-21T01:09:53.887Z,3.08
2023-02-21T01:12:37.613Z,2.65
2023-02-21T01:15:21.984Z,2.55
2023-02-21T01:18:04.286Z,2.60
2023-02-21T01:20:46.900Z,2.35
2023-02-21T01:23:29.773Z,2.90
2023-02-21T01:26:14.292Z,2.30
2023-02-21T01:28:57.675Z,2.72
2023-02-21T01:31:41.440Z,2.35
2023-02-21T01:34:25.635Z,2.50
2023-02-21T01:37:09.973Z,2.33
2023-02-21T01:39:54.542Z,2.10
2023-02-21T01:42:37.882Z,2.47
2023-02-21T01:45:58.568Z,2.65
2023-02-21T01:48:43.656Z,2.83
2023-02-21T01:51:29.124Z,2.15
2023-02-21T01:54:14.565Z,2.25
2023-02-21T01:56:57.223Z,2.42
2023-02-21T01:59:42.306Z,2.85
2023-02-21T02:02:45.434Z,2.63
2023-02-21T02:05:31.123Z,2.05
2023-02-21T02:08:15.069Z,2.35
2023-02-21T02:11:00.993Z,2.33
2023-02-21T02:13:47.418Z,2.80
2023-02-21T02:16:41.240Z,2.33
2023-02-21T02:19:25.305Z,2.50
2023-02-21T02:22:11.769Z,2.58
2023-02-21T02:24:56.063Z,2.33
2023-02-21T02:27:43.621Z,2.30
2023-02-21T02:30:17.918Z,2.30
2023-02-21T02:33:07.607Z,2.83
2023-02-21T02:35:40.948Z,2.40
2023-02-21T02:38:32.559Z,2.35
2023-02-21T02:41:02.898Z,2.35
2023-02-21T02:43:35.236Z,2.28
2023-02-21T02:46:12.894Z,2.45
2023-02-21T02:48:47.298Z,2.42
2023-02-21T02:51:17.383Z,2.20
2023-02-21T02:53:47.234Z,2.50
2023-02-21T02:56:17.343Z,2.50
2023-02-21T02:59:00.488Z,2.13
2023-02-21T03:02:02.746Z,2.50
2023-02-21T03:04:32.100Z,2.17
2023-02-21T03:07:15.662Z,2.50
2023-02-21T03:09:58.357Z,2.40
2023-02-21T03:12:48.162Z,2.20
2023-02-21T03:15:23.766Z,1.98
2023-02-21T03:18:05.405Z,2.45
2023-02-21T03:20:33.331Z,2.15
2023-02-21T03:23:04.041Z,2.30
2023-02-21T03:25:35.642Z,2.40
2023-02-21T03:28:03.508Z,2.10
2023-02-21T03:30:32.317Z,2.00
2023-02-21T03:33:00.452Z,2.30
2023-02-21T03:35:34.233Z,2.22
2023-02-21T03:38:02.697Z,2.47
2023-02-21T03:40:32.916Z,2.33
2023-02-21T03:43:03.034Z,2.30
2023-02-21T03:45:30.624Z,2.47
2023-02-21T03:47:57.447Z,2.08
2023-02-21T03:50:24.564Z,1.92
2023-02-21T03:52:53.477Z,2.28
2023-02-21T03:55:22.541Z,2.13
2023-02-21T03:57:50.724Z,2.30
2023-02-21T04:00:18.886Z,2.55
2023-02-21T04:02:49.582Z,2.88
2023-02-21T04:05:17.294Z,2.03
2023-02-21T04:07:47.718Z,2.13
2023-02-21T04:10:16.306Z,2.30
2023-02-21T04:12:44.809Z,2.38
2023-02-21T04:15:12.428Z,2.00
2023-02-21T04:17:40.556Z,2.00
2023-02-21T04:20:08.509Z,2.33
2023-02-21T04:22:36.995Z,2.13
2023-02-21T04:25:04.354Z,2.30
2023-02-21T04:27:31.801Z,1.92
2023-02-21T04:29:58.615Z,2.13
2023-02-21T04:32:25.601Z,2.20
2023-02-21T04:34:53.310Z,2.00
2023-02-21T04:37:22.042Z,2.10
2023-02-21T04:39:49.658Z,2.40
2023-02-21T04:42:18.851Z,2.30
2023-02-21T04:44:59.370Z,1.70
2023-02-21T04:47:29.012Z,2.15
2023-02-21T04:49:58.200Z,2.80
2023-02-21T04:52:26.889Z,2.22
2023-02-21T04:54:56.225Z,2.30
2023-02-21T04:57:26.217Z,2.20
2023-02-21T04:59:58.214Z,2.20
2023-02-21T05:02:27.029Z,2.20
2023-02-21T05:04:54.867Z,2.20
2023-02-21T05:07:22.663Z,2.38
2023-02-21T05:09:52.186Z,2.10
2023-02-21T05:12:20.853Z,2.22
2023-02-21T05:14:48.990Z,2.38
2023-02-21T05:17:17.685Z,2.17
2023-02-21T05:19:47.430Z,2.20
2023-02-21T05:22:14.600Z,2.38
2023-02-21T05:24:42.789Z,1.92
2023-02-21T05:27:11.578Z,2.20
2023-02-21T05:29:40.087Z,2.80
2023-02-21T05:32:06.979Z,2.63
2023-02-21T05:34:35.343Z,2.22
2023-02-21T05:37:03.351Z,2.47
2023-02-21T05:39:31.864Z,2.40
2023-02-21T05:42:00.999Z,3.03
2023-02-21T05:44:30.603Z,2.30
2023-02-21T05:47:00.144Z,2.50
2023-02-21T05:49:29.279Z,2.70
2023-02-21T05:51:56.457Z,2.30
2023-02-21T05:54:24.377Z,2.35
2023-02-21T05:56:53.532Z,2.50
2023-02-21T05:59:22.720Z,2.22
2023-02-21T06:01:52.386Z,2.47
2023-02-21T06:04:21.310Z,2.45
2023-02-21T06:06:49.364Z,2.55
2023-02-21T06:09:19.357Z,2.03
2023-02-21T06:11:46.512Z,2.47
2023-02-21T06:14:17.260Z,2.47
2023-02-21T06:16:44.809Z,2.55
2023-02-21T06:19:16.503Z,2.42
2023-02-21T06:21:47.099Z,2.97
2023-02-21T06:24:15.863Z,3.10
2023-02-21T06:26:43.506Z,2.65
2023-02-21T06:29:11.157Z,2.33
2023-02-21T06:31:40.008Z,2.67
2023-02-21T06:34:07.409Z,2.78
2023-02-21T06:36:36.673Z,2.75
2023-02-21T06:39:08.278Z,3.17
2023-02-21T06:41:37.112Z,3.03
2023-02-21T06:44:06.271Z,3.05
2023-02-21T06:46:36.486Z,2.55
2023-02-21T06:49:06.691Z,2.90
2023-02-21T06:51:39.261Z,2.97
2023-02-21T06:54:08.406Z,3.45
2023-02-21T06:56:37.511Z,2.60
2023-02-21T06:59:05.261Z,2.80
2023-02-21T07:01:33.347Z,2.95
2023-02-21T07:04:01.746Z,2.88
2023-02-21T07:06:30.715Z,2.90
2023-02-21T07:08:58.854Z,3.08
2023-02-21T07:11:27.507Z,2.90
2023-02-21T07:14:00.256Z,2.80
2023-02-21T07:16:31.085Z,3.10
2023-02-21T07:18:59.357Z,3.20
2023-02-21T07:21:28.626Z,2.50
2023-02-21T07:23:56.599Z,2.88
2023-02-21T07:26:25.541Z,3.00
2023-02-21T07:28:53.814Z,3.17
2023-02-21T07:31:22.864Z,2.60
2023-02-21T07:33:51.569Z,3.25
2023-02-21T07:36:18.884Z,2.90
2023-02-21T07:38:47.993Z,3.38
2023-02-21T07:41:18.073Z,3.25
2023-02-21T07:43:47.560Z,3.63
2023-02-21T07:46:18.659Z,3.03
2023-02-21T07:48:46.418Z,3.20
2023-02-21T07:51:16.824Z,3.00
2023-02-21T07:53:45.005Z,3.03
2023-02-21T07:56:12.944Z,3.28
2023-02-21T07:58:40.567Z,3.25
2023-02-21T08:01:09.295Z,2.88
2023-02-21T08:03:39.200Z,2.90
2023-02-21T08:06:08.813Z,3.58
2023-02-21T08:08:38.592Z,2.95
2023-02-21T08:11:07.015Z,3.50
2023-02-21T08:13:36.290Z,2.90
2023-02-21T08:16:04.165Z,3.50
2023-02-21T08:18:34.168Z,3.25
2023-02-21T08:21:04.204Z,3.65
2023-02-21T08:23:33.915Z,3.38
2023-02-21T08:26:05.305Z,3.10
2023-02-21T08:28:35.956Z,3.17
2023-02-21T08:31:04.595Z,3.30
2023-02-21T08:33:32.525Z,3.50
2023-02-21T08:36:01.800Z,3.47
2023-02-21T08:38:31.387Z,3.58
2023-02-21T08:41:00.291Z,3.50
2023-02-21T08:43:29.762Z,3.85
2023-02-21T08:45:58.372Z,3.40
2023-02-21T08:48:26.871Z,3.80
2023-02-21T08:50:55.365Z,4.15
2023-02-21T08:53:24.323Z,3.97
2023-02-21T08:55:52.471Z,3.85
2023-02-21T08:58:20.934Z,4.10
2023-02-21T09:00:49.819Z,4.38
2023-02-21T09:03:17.766Z,3.75
2023-02-21T09:05:46.657Z,4.30
2023-02-21T09:08:16.381Z,4.15
2023-02-21T09:10:49.014Z,4.90
2023-02-21T09:13:19.227Z,4.38
2023-02-21T09:15:47.910Z,4.43
2023-02-21T09:18:17.080Z,4.43
2023-02-21T09:20:53.600Z,4.47
2023-02-21T09:23:23.493Z,4.30
2023-02-21T09:25:54.707Z,4.68
2023-02-21T09:28:23.737Z,4.47
2023-02-21T09:30:53.558Z,4.72
2023-02-21T09:33:24.895Z,4.38
2023-02-21T09:35:55.036Z,4.10
2023-02-21T09:38:25.524Z,4.22
2023-02-21T09:41:02.623Z,3.63
2023-02-21T09:43:34.735Z,4.50
2023-02-21T09:46:14.661Z,4.22
2023-02-21T09:48:45.667Z,3.72
2023-02-21T09:51:15.877Z,4.07
2023-02-21T09:53:49.475Z,3.75
2023-02-21T09:56:29.552Z,4.13
2023-02-21T09:58:59.698Z,3.65
2023-02-21T10:01:54.506Z,3.17
2023-02-21T10:04:47.613Z,3.20
2023-02-21T10:07:28.178Z,2.70
2023-02-21T10:10:06.732Z,2.25
2023-02-21T10:12:46.537Z,2.75
2023-02-21T10:15:43.768Z,2.30
2023-02-21T10:18:34.421Z,2.03
2023-02-21T10:21:06.129Z,1.70
2023-02-21T10:23:38.931Z,1.90
2023-02-21T10:26:12.092Z,1.40
2023-02-21T10:28:41.193Z,1.33
2023-02-21T10:31:18.225Z,1.33
2023-02-21T10:33:46.320Z,1.77
2023-02-21T10:36:22.354Z,1.73
2023-02-21T10:39:11.996Z,1.75
2023-02-21T10:41:45.722Z,1.77
2023-02-21T10:44:20.590Z,1.75
2023-02-21T10:47:15.054Z,1.70
2023-02-21T10:50:07.647Z,2.58
2023-02-21T10:52:48.895Z,1.85
2023-02-21T10:55:31.799Z,1.90
2023-02-21T10:58:10.358Z,1.80
2023-02-21T11:00:42.839Z,1.73
2023-02-21T11:03:24.977Z,2.33
2023-02-21T11:05:56.030Z,2.00
2023-02-21T11:08:38.624Z,2.47
2023-02-21T11:11:06.586Z,1.95
2023-02-21T11:13:36.748Z,1.92
2023-02-21T11:16:10.173Z,2.17
2023-02-21T11:18:38.402Z,2.67
2023-02-21T11:21:22.762Z,2.03
2023-02-21T11:24:02.821Z,2.75
2023-02-21T11:26:37.202Z,2.30
2023-02-21T11:29:14.707Z,2.40
2023-02-21T11:31:45.357Z,2.38
2023-02-21T11:34:14.880Z,2.75
2023-02-21T11:36:50.897Z,2.65
2023-02-21T11:39:28.137Z,2.42
2023-02-21T11:41:59.408Z,2.88
2023-02-21T11:44:36.047Z,2.67
2023-02-21T11:47:20.744Z,3.15
2023-02-21T11:49:53.895Z,2.65
2023-02-21T11:52:28.584Z,2.03
2023-02-21T11:54:57.493Z,2.30
2023-02-21T11:57:33.986Z,2.42
2023-02-21T12:00:24.358Z,2.40
2023-02-21T12:03:12.958Z,2.42
2023-02-21T12:06:03.266Z,2.50
2023-02-21T12:08:55.884Z,2.55
2023-02-21T12:11:35.639Z,2.10
2023-02-21T12:14:30.481Z,1.98
2023-02-21T12:17:34.298Z,2.30
2023-02-21T12:20:03.726Z,2.63
2023-02-21T12:22:42.745Z,1.92
2023-02-21T12:25:33.998Z,1.95
2023-02-21T12:28:26.971Z,1.92
2023-02-21T12:31:09.259Z,2.00
2023-02-21T12:33:45.097Z,2.03
2023-02-21T12:36:27.740Z,2.10
2023-02-21T12:39:26.050Z,1.83
2023-02-21T12:42:25.701Z,1.90
2023-02-21T12:45:10.542Z,1.95
2023-02-21T12:47:49.296Z,2.08
2023-02-21T12:50:24.450Z,2.00
2023-02-21T12:53:03.608Z,2.05
2023-02-21T12:55:40.123Z,1.83
2023-02-21T12:58:33.083Z,1.50
2023-02-21T13:01:11.059Z,1.63
2023-02-21T13:03:54.377Z,1.75
2023-02-21T13:06:33.796Z,2.08
2023-02-21T13:09:35.078Z,1.58
2023-02-21T13:12:15.285Z,1.30
2023-02-21T13:14:50.711Z,1.60
2023-02-21T13:17:20.644Z,1.52
2023-02-21T13:19:57.168Z,1.55
2023-02-21T13:25:14.660Z,1.80
2023-02-21T13:27:44.654Z,1.58
2023-02-21T13:30:30.590Z,1.98
2023-02-21T13:33:01.375Z,1.63
2023-02-21T13:35:39.987Z,1.65
2023-02-21T13:38:11.828Z,1.50
2023-02-21T13:40:51.949Z,1.60
2023-02-21T13:43:29.989Z,1.70
2023-02-21T13:46:30.350Z,1.80
2023-02-21T13:49:29.660Z,1.80
2023-02-21T13:52:16.851Z,1.50
2023-02-21T13:55:16.422Z,1.50
2023-02-21T13:57:48.511Z,1.42
2023-02-21T14:00:36.273Z,1.65
2023-02-21T14:03:06.605Z,1.58
2023-02-21T14:05:53.457Z,1.33
2023-02-21T14:08:45.018Z,1.90
2023-02-21T14:11:24.540Z,1.77
2023-02-21T14:13:56.525Z,1.67
2023-02-21T14:16:26.231Z,1.52
2023-02-21T14:19:07.452Z,1.65
2023-02-21T14:21:45.300Z,1.42
2023-02-21T14:24:17.306Z,1.60
2023-02-21T14:27:02.905Z,1.67
2023-02-21T14:29:33.157Z,1.65
2023-02-21T14:32:03.676Z,1.80
2023-02-21T14:34:48.447Z,1.30
2023-02-21T14:37:32.068Z,1.40
2023-02-21T14:40:19.186Z,1.60
2023-02-21T14:43:22.093Z,1.80
2023-02-21T14:46:20.112Z,1.95
2023-02-21T14:49:22.840Z,1.70
2023-02-21T14:52:26.199Z,2.08
2023-02-21T14:55:24.057Z,1.70
2023-02-21T14:58:32.834Z,1.95
2023-02-21T15:01:26.699Z,1.98
2023-02-21T15:04:10.406Z,1.63
2023-02-21T15:06:44.638Z,2.00
2023-02-21T15:09:19.958Z,2.20
2023-02-21T15:11:49.440Z,2.20
2023-02-21T15:14:23.777Z,1.98
2023-02-21T15:16:56.858Z,2.40
2023-02-21T15:19:32.561Z,1.83
2023-02-21T15:22:18.519Z,2.20
2023-02-21T15:25:15.099Z,2.03
2023-02-21T15:27:57.262Z,2.00
2023-02-21T15:30:33.190Z,1.98
2023-02-21T15:33:16.390Z,2.10
2023-02-21T15:35:53.746Z,1.75
2023-02-21T15:38:27.501Z,1.85
2023-02-21T15:40:58.709Z,2.30
2023-02-21T15:43:50.320Z,1.70
2023-02-21T15:46:26.031Z,1.58
2023-02-21T15:48:57.845Z,1.48
2023-02-21T15:51:27.138Z,1.80
2023-02-21T15:54:11.528Z,2.00
2023-02-21T15:56:40.681Z,1.90
2023-02-21T15:59:12.522Z,1.70
2023-02-21T16:01:41.070Z,1.48
2023-02-21T16:04:22.705Z,1.55
2023-02-21T16:06:56.932Z,1.60
2023-02-21T16:09:29.891Z,2.03
2023-02-21T16:12:17.549Z,1.50
2023-02-21T16:14:49.522Z,1.10
2023-02-21T16:17:32.365Z,1.50
2023-02-21T16:20:07.465Z,1.75
2023-02-21T16:22:59.648Z,1.45
2023-02-21T16:25:26.482Z,2.13
2023-02-21T16:27:59.787Z,2.10
2023-02-21T16:30:31.960Z,2.30
2023-02-21T16:33:05.306Z,2.15
2023-02-21T16:35:35.404Z,2.22
2023-02-21T16:38:03.672Z,1.77
2023-02-21T16:40:33.853Z,1.73
2023-02-21T16:43:04.254Z,2.10
2023-02-21T16:45:33.507Z,5.13
2023-02-21T16:48:05.525Z,2.63
2023-02-21T16:50:37.387Z,4.38
2023-02-21T16:53:06.906Z,4.70
2023-02-21T16:55:36.906Z,4.70
2023-02-21T16:58:08.973Z,3.05
2023-02-21T17:00:37.138Z,2.33
2023-02-21T17:03:04.741Z,2.05
2023-02-21T17:05:36.938Z,1.92
2023-02-21T17:08:05.693Z,1.55
2023-02-21T17:10:35.105Z,1.85
2023-02-21T17:13:04.563Z,1.67
2023-02-21T17:15:34.221Z,1.60
2023-02-21T17:18:04.590Z,1.58
2023-02-21T17:20:33.894Z,1.42
2023-02-21T17:23:02.768Z,1.65
2023-02-21T17:25:33.430Z,1.83
2023-02-21T17:28:03.004Z,2.42
2023-02-21T17:30:33.048Z,1.95
2023-02-21T17:33:00.676Z,6.13
2023-02-21T17:35:30.917Z,21.63
2023-02-21T17:38:02.797Z,15.10
2023-02-21T17:40:31.857Z,13.05
2023-02-21T17:43:00.097Z,5.25
2023-02-21T17:45:29.799Z,8.40
2023-02-21T17:47:57.807Z,7.20
2023-02-21T17:50:26.676Z,5.55
2023-02-21T17:52:54.689Z,5.50
2023-02-21T17:55:26.920Z,4.63
2023-02-21T17:57:56.579Z,3.35
2023-02-21T18:00:29.268Z,3.85
2023-02-21T18:02:57.942Z,4.15
2023-02-21T18:05:27.683Z,3.80
2023-02-21T18:07:56.393Z,3.50
2023-02-21T18:10:26.942Z,3.72
2023-02-21T18:12:55.975Z,3.67
2023-02-21T18:15:27.757Z,3.33
2023-02-21T18:17:59.022Z,3.35
2023-02-21T18:20:27.306Z,3.47
2023-02-21T18:22:56.004Z,3.35
2023-02-21T18:25:25.432Z,2.92
2023-02-21T18:27:54.897Z,3.10
2023-02-21T18:30:25.587Z,2.92
2023-02-21T18:32:53.888Z,2.92
2023-02-21T18:35:23.890Z,3.40
2023-02-21T18:37:52.417Z,3.28
2023-02-21T18:40:21.046Z,3.47
2023-02-21T18:42:48.827Z,3.70
2023-02-21T18:45:20.026Z,4.13
2023-02-21T18:47:48.405Z,3.97
2023-02-21T18:50:16.942Z,4.07
2023-02-21T18:52:46.353Z,3.72
2023-02-21T18:55:13.977Z,4.38
2023-02-21T18:57:40.854Z,5.80
2023-02-21T19:00:10.459Z,6.65
2023-02-21T19:02:39.827Z,4.18
2023-02-21T19:05:08.783Z,3.00
2023-02-21T19:07:36.634Z,3.45
2023-02-21T19:10:05.753Z,3.72
2023-02-21T19:12:34.439Z,3.00
2023-02-21T19:15:02.986Z,3.03
2023-02-21T19:17:33.692Z,3.55
2023-02-21T19:20:02.258Z,3.13
2023-02-21T19:22:30.399Z,2.97
2023-02-21T19:24:59.069Z,3.80
2023-02-21T19:27:28.563Z,4.47
2023-02-21T19:29:57.178Z,4.00
2023-02-21T19:32:25.904Z,3.80
2023-02-21T19:34:55.034Z,3.95
2023-02-21T19:37:23.281Z,4.32
2023-02-21T19:39:51.393Z,3.70
2023-02-21T19:42:20.515Z,4.00
2023-02-21T19:44:49.724Z,4.20
2023-02-21T19:47:18.902Z,4.60
2023-02-21T19:49:48.741Z,2.90
2023-02-21T19:52:16.095Z,4.18
2023-02-21T19:54:44.059Z,3.38
2023-02-21T19:57:12.274Z,3.28
2023-02-21T19:59:47.038Z,3.47
2023-02-21T20:02:17.443Z,3.40
2023-02-21T20:04:45.611Z,3.67
2023-02-21T20:07:14.814Z,3.00
2023-02-21T20:09:43.500Z,3.63
2023-02-21T20:12:13.715Z,3.58
2023-02-21T20:14:47.066Z,3.50
2023-02-21T20:17:18.545Z,3.70
2023-02-21T20:19:48.070Z,3.67
2023-02-21T20:22:16.882Z,3.15
2023-02-21T20:24:47.966Z,3.95
2023-02-21T20:27:17.378Z,3.28
2023-02-21T20:29:47.715Z,3.70
2023-02-21T20:32:20.238Z,4.25
2023-02-21T20:34:49.048Z,3.65
2023-02-21T20:37:17.958Z,3.85
2023-02-21T20:39:50.080Z,3.72
2023-02-21T20:42:23.686Z,3.20
2023-02-21T20:44:52.425Z,3.65
2023-02-21T20:47:21.000Z,3.42
2023-02-21T20:49:50.869Z,3.45
2023-02-21T20:52:18.906Z,4.10
2023-02-21T20:54:47.395Z,4.70
2023-02-21T20:57:17.084Z,6.53
2023-02-21T20:59:49.627Z,5.85
2023-02-21T21:02:18.878Z,5.10
2023-02-21T21:04:52.154Z,4.80
2023-02-21T21:07:25.019Z,4.20
2023-02-21T21:09:55.059Z,4.35
2023-02-21T21:12:25.392Z,4.13
2023-02-21T21:14:54.820Z,4.38
2023-02-21T21:17:24.964Z,4.10
2023-02-21T21:19:53.973Z,4.82
2023-02-21T21:22:26.031Z,4.20
2023-02-21T21:24:54.684Z,4.88
2023-02-21T21:27:24.029Z,4.20
2023-02-21T21:29:54.635Z,4.68
2023-02-21T21:32:24.289Z,3.83
2023-02-21T21:34:55.545Z,4.25
2023-02-21T21:37:27.476Z,4.30
2023-02-21T21:39:56.556Z,4.78
2023-02-21T21:42:29.900Z,5.70
2023-02-21T21:44:58.805Z,5.22
2023-02-21T21:47:32.053Z,6.53
2023-02-21T21:50:02.597Z,7.68
2023-02-21T21:52:31.180Z,7.43
2023-02-21T21:55:01.286Z,6.28
2023-02-21T21:57:28.996Z,6.47
2023-02-21T21:59:57.540Z,5.45
2023-02-21T22:02:25.781Z,5.32
2023-02-21T22:04:54.230Z,5.65
2023-02-21T22:07:24.658Z,5.03
2023-02-21T22:09:53.255Z,5.10
2023-02-21T22:12:21.230Z,6.18
2023-02-21T22:14:50.055Z,6.03
2023-02-21T22:17:19.715Z,5.30
2023-02-21T22:19:49.216Z,5.97
2023-02-21T22:22:18.064Z,5.72
2023-02-21T22:24:46.837Z,5.47
2023-02-21T22:27:15.741Z,5.55
2023-02-21T22:29:44.468Z,5.70
2023-02-21T22:32:11.375Z,5.95
2023-02-21T22:34:38.390Z,5.80
2023-02-21T22:37:06.875Z,6.43
2023-02-21T22:39:34.513Z,5.20
2023-02-21T22:42:05.967Z,6.47
2023-02-21T22:44:36.516Z,6.13
2023-02-21T22:47:07.960Z,6.32
2023-02-21T22:49:34.965Z,6.30
2023-02-21T22:52:04.187Z,6.07
2023-02-21T22:54:33.097Z,5.45
2023-02-21T22:57:02.028Z,4.75
2023-02-21T22:59:31.093Z,5.82
2023-02-21T23:01:59.661Z,5.22
2023-02-21T23:04:28.855Z,5.18
2023-02-21T23:07:00.244Z,5.80
2023-02-21T23:09:30.320Z,6.05
2023-02-21T23:12:00.796Z,4.82
2023-02-21T23:14:33.145Z,5.15
2023-02-21T23:17:02.805Z,4.88
2023-02-21T23:19:33.414Z,4.97
2023-02-21T23:22:00.487Z,6.20
2023-02-21T23:24:30.217Z,5.32
2023-02-21T23:26:57.752Z,5.00
2023-02-21T23:29:26.288Z,5.22
2023-02-21T23:31:58.558Z,5.72
2023-02-21T23:34:41.126Z,5.55
2023-02-21T23:37:12.956Z,5.82
2023-02-21T23:39:41.141Z,5.55
2023-02-21T23:42:11.601Z,5.13
2023-02-21T23:44:38.553Z,4.80
2023-02-21T23:47:06.670Z,4.55
2023-02-21T23:49:34.124Z,4.70
2023-02-21T23:52:02.783Z,4.65
2023-02-21T23:54:30.938Z,4.35
2023-02-21T23:57:00.957Z,4.25
2023-02-21T23:59:30.557Z,4.22
